Wattsville, Alabama
Current Conditions -  °F | °C
As of 12:35 PM on Thursday 27 Nov 2014 (Local Time) from KASN Reporting Station
Overcast Overcast  
Wind Chill: 41°   Ceiling: 3700
Heat Index: 46°   Visibility: 10mi
Dew Point: 30°   Wind: 9mph
Humidity: 54%   Direction: 320°NW
Pressure: 30.37"   Gusts: NA
Location:  33.68°N, 86.28°W
Report Text: KASN 271835Z AUTO 32008KT 10SM BKN037 OVC045 08/M01 A3037 RMK AO2 T00771012
Loading
Personal Weather Stations






























Interactive Weather Map New forecast layout! Learn more

10-Day Weather Forecast

Advertisements
Track Severe Weather on mobile